createdAt,value
2019-04-06T00:01:50.423Z,117.70
2019-04-06T00:04:17.056Z,111.10
2019-04-06T00:06:43.824Z,110.93
2019-04-06T00:09:10.461Z,109.40
2019-04-06T00:11:37.092Z,115.77
2019-04-06T00:14:04.787Z,112.57
2019-04-06T00:16:32.314Z,114.53
2019-04-06T00:18:59.601Z,108.40
2019-04-06T00:21:27.052Z,93.70
2019-04-06T00:23:54.402Z,112.53
2019-04-06T00:26:22.127Z,113.13
2019-04-06T00:28:48.851Z,106.47
2019-04-06T00:31:41.044Z,108.67
2019-04-06T00:34:08.964Z,104.77
2019-04-06T00:36:35.586Z,111.43
2019-04-06T00:39:02.430Z,106.07
2019-04-06T00:41:30.871Z,111.30
2019-04-06T00:43:58.688Z,98.27
2019-04-06T00:46:25.363Z,104.60
2019-04-06T00:48:52.031Z,124.50
2019-04-06T00:51:18.658Z,120.50
2019-04-06T00:53:45.831Z,107.97
2019-04-06T00:56:13.108Z,111.00
2019-04-06T00:58:39.743Z,101.40
2019-04-06T01:01:06.847Z,107.03
2019-04-06T01:03:34.299Z,118.30
2019-04-06T01:06:01.556Z,118.73
2019-04-06T01:08:28.491Z,116.40
2019-04-06T01:10:55.693Z,114.17
2019-04-06T01:13:23.507Z,111.97
2019-04-06T01:15:50.454Z,122.20
2019-04-06T01:18:17.399Z,102.13
2019-04-06T01:20:45.470Z,94.67
2019-04-06T01:23:12.772Z,116.53
2019-04-06T01:25:39.846Z,103.37
2019-04-06T01:28:06.919Z,97.77
2019-04-06T01:30:33.706Z,92.87
2019-04-06T01:33:00.335Z,95.80
2019-04-06T01:35:26.955Z,88.43
2019-04-06T01:37:53.593Z,92.07
2019-04-06T01:40:20.643Z,91.73
2019-04-06T01:42:47.371Z,95.33
2019-04-06T01:45:15.193Z,98.20
2019-04-06T01:47:41.859Z,92.63
2019-04-06T01:50:08.547Z,96.60
2019-04-06T01:52:35.476Z,103.03
2019-04-06T01:55:02.167Z,95.87
2019-04-06T01:57:30.197Z,94.73
2019-04-06T01:59:56.924Z,105.43
2019-04-06T02:02:27.615Z,99.97
2019-04-06T02:04:54.516Z,87.87
2019-04-06T02:07:21.240Z,96.77
2019-04-06T02:09:47.977Z,95.30
2019-04-06T02:12:14.676Z,95.20
2019-04-06T02:14:41.315Z,99.73
2019-04-06T02:17:07.955Z,109.10
2019-04-06T02:19:35.623Z,108.33
2019-04-06T02:22:04.438Z,106.83
2019-04-06T02:24:32.060Z,111.10
2019-04-06T02:27:01.375Z,118.77
2019-04-06T02:29:28.324Z,114.97
2019-04-06T02:32:18.108Z,100.80
2019-04-06T02:35:02.902Z,97.33
2019-04-06T02:37:56.208Z,100.90
2019-04-06T02:40:33.183Z,99.03
2019-04-06T02:43:12.372Z,93.73
2019-04-06T02:45:39.106Z,90.97
2019-04-06T02:48:06.052Z,106.43
2019-04-06T02:50:32.736Z,98.17
2019-04-06T02:52:59.479Z,107.30
2019-04-06T02:55:26.166Z,112.27
2019-04-06T02:57:53.595Z,97.93
2019-04-06T03:00:20.211Z,98.90
2019-04-06T03:02:47.787Z,110.30
2019-04-06T03:05:14.750Z,107.57
2019-04-06T03:07:41.984Z,95.63
2019-04-06T03:10:09.152Z,110.27
2019-04-06T03:12:36.799Z,96.37
2019-04-06T03:15:03.886Z,108.73
2019-04-06T03:17:30.795Z,110.50
2019-04-06T03:19:57.741Z,92.47
2019-04-06T03:22:24.675Z,109.23
2019-04-06T03:24:52.038Z,98.60
2019-04-06T03:27:19.395Z,100.77
2019-04-06T03:29:57.336Z,103.60
2019-04-06T03:32:15.125Z,104.87
2019-04-06T03:34:42.326Z,100.07
2019-04-06T03:37:09.318Z,106.53
2019-04-06T03:39:36.000Z,94.67
2019-04-06T03:42:02.808Z,102.27
2019-04-06T03:44:29.697Z,104.53
2019-04-06T03:46:56.571Z,102.23
2019-04-06T03:49:24.711Z,102.73
2019-04-06T03:51:52.440Z,97.07
2019-04-06T03:54:19.075Z,89.00
2019-04-06T03:56:47.547Z,108.53
2019-04-06T03:59:14.175Z,108.03
2019-04-06T04:01:40.852Z,110.87
2019-04-06T04:04:07.560Z,101.67
2019-04-06T04:06:34.189Z,111.13
2019-04-06T04:09:00.824Z,98.53
2019-04-06T04:11:28.421Z,103.50
2019-04-06T04:13:56.160Z,93.70
2019-04-06T04:16:24.353Z,101.60
2019-04-06T04:18:51.583Z,88.63
2019-04-06T04:21:18.834Z,103.67
2019-04-06T04:23:46.083Z,102.27
2019-04-06T04:26:13.856Z,115.10
2019-04-06T04:28:42.767Z,113.53
2019-04-06T04:31:09.992Z,100.47
2019-04-06T04:33:36.964Z,105.67
2019-04-06T04:36:03.588Z,120.90
2019-04-06T04:38:30.217Z,114.93
2019-04-06T04:40:56.879Z,97.73
2019-04-06T04:43:25.702Z,101.27
2019-04-06T04:45:52.668Z,106.17
2019-04-06T04:48:19.467Z,105.10
2019-04-06T04:50:46.776Z,102.07
2019-04-06T04:53:14.052Z,100.13
2019-04-06T04:55:41.077Z,119.13
2019-04-06T04:58:08.635Z,111.23
2019-04-06T05:00:35.589Z,113.70
2019-04-06T05:03:02.380Z,129.60
2019-04-06T05:05:30.300Z,110.20
2019-04-06T05:07:57.338Z,114.60
2019-04-06T05:10:24.287Z,115.63
2019-04-06T05:12:51.534Z,115.40
2019-04-06T05:15:21.502Z,113.03
2019-04-06T05:17:48.156Z,109.30
2019-04-06T05:20:15.133Z,113.03
2019-04-06T05:22:42.106Z,112.17
2019-04-06T05:25:08.989Z,113.17
2019-04-06T05:27:37.195Z,110.83
2019-04-06T05:30:05.779Z,116.57
2019-04-06T05:32:32.448Z,105.60
2019-04-06T05:34:59.666Z,105.80
2019-04-06T05:37:27.641Z,101.97
2019-04-06T05:39:54.580Z,103.03
2019-04-06T05:42:21.391Z,99.50
2019-04-06T05:44:48.779Z,101.30
2019-04-06T05:47:16.045Z,97.03
2019-04-06T05:49:43.383Z,103.10
2019-04-06T05:52:10.427Z,106.97
2019-04-06T05:54:37.762Z,113.47
2019-04-06T05:57:05.243Z,102.07
2019-04-06T05:59:33.958Z,105.93
2019-04-06T06:02:00.976Z,104.07
2019-04-06T06:04:28.115Z,95.87
2019-04-06T06:06:55.683Z,104.63
2019-04-06T06:09:22.322Z,100.70
2019-04-06T06:11:48.971Z,109.77
2019-04-06T06:14:15.627Z,103.87
2019-04-06T06:16:42.459Z,94.10
2019-04-06T06:19:09.449Z,94.87
2019-04-06T06:21:36.659Z,97.20
2019-04-06T06:24:03.340Z,102.40
2019-04-06T06:26:30.735Z,100.63
2019-04-06T06:28:59.311Z,105.17
2019-04-06T06:31:26.279Z,103.40
2019-04-06T06:33:53.713Z,109.53
2019-04-06T06:36:20.965Z,95.57
2019-04-06T06:38:48.039Z,99.93
2019-04-06T06:41:14.730Z,95.67
2019-04-06T06:43:41.547Z,102.70
2019-04-06T06:46:08.169Z,100.13
2019-04-06T06:48:35.204Z,97.63
2019-04-06T06:51:01.896Z,100.43
2019-04-06T06:53:28.622Z,96.07
2019-04-06T06:55:55.425Z,100.03
2019-04-06T06:58:25.614Z,94.17
2019-04-06T07:00:52.259Z,92.43
2019-04-06T07:03:19.203Z,88.10
2019-04-06T07:05:46.091Z,93.17
2019-04-06T07:08:12.763Z,89.30
2019-04-06T07:10:39.391Z,84.20
2019-04-06T07:13:06.281Z,86.73
2019-04-06T07:15:33.143Z,86.67
2019-04-06T07:18:00.011Z,84.03
2019-04-06T07:20:26.980Z,86.87
2019-04-06T07:22:53.967Z,90.17
2019-04-06T07:25:20.611Z,88.20
2019-04-06T07:27:47.322Z,84.67
2019-04-06T07:30:14.240Z,83.33
2019-04-06T07:32:40.984Z,78.17
2019-04-06T07:35:07.777Z,83.80
2019-04-06T07:37:35.915Z,78.47
2019-04-06T07:40:03.320Z,84.63
2019-04-06T07:42:30.159Z,77.20
2019-04-06T07:44:56.795Z,83.20
2019-04-06T07:47:23.431Z,78.70
2019-04-06T07:49:50.107Z,76.00
2019-04-06T07:52:16.731Z,79.00
2019-04-06T07:54:43.650Z,71.73
2019-04-06T07:57:10.408Z,75.33
2019-04-06T07:59:37.151Z,68.07
2019-04-06T08:02:04.085Z,72.67
2019-04-06T08:04:31.267Z,77.40
2019-04-06T08:06:58.065Z,72.90
2019-04-06T08:09:24.679Z,78.00
2019-04-06T08:11:51.452Z,72.77
2019-04-06T08:14:18.304Z,72.77
2019-04-06T08:16:45.359Z,72.10
2019-04-06T08:19:13.207Z,69.77
2019-04-06T08:21:41.622Z,70.97
2019-04-06T08:24:08.255Z,65.93
2019-04-06T08:26:36.131Z,67.50
2019-04-06T08:29:02.875Z,69.50
2019-04-06T08:31:29.615Z,67.23
2019-04-06T08:33:56.674Z,70.20
2019-04-06T08:36:23.617Z,71.67
2019-04-06T08:38:52.402Z,75.80
2019-04-06T08:41:20.267Z,82.40
2019-04-06T08:43:47.216Z,68.13
2019-04-06T08:46:13.855Z,71.20
2019-04-06T08:48:40.795Z,68.70
2019-04-06T08:51:07.846Z,76.83
2019-04-06T08:53:35.143Z,70.13
2019-04-06T08:56:02.451Z,54.43
2019-04-06T08:58:29.394Z,71.53
2019-04-06T09:00:56.182Z,69.23
2019-04-06T09:03:22.803Z,58.47
2019-04-06T09:05:49.511Z,62.90
2019-04-06T09:08:16.144Z,61.00
2019-04-06T09:10:43.195Z,63.67
2019-04-06T09:13:11.164Z,62.60
2019-04-06T09:15:38.425Z,60.00
2019-04-06T09:18:05.783Z,62.60
2019-04-06T09:20:33.123Z,67.00
2019-04-06T09:22:59.848Z,61.17
2019-04-06T09:25:27.219Z,64.80
2019-04-06T09:27:54.165Z,67.70
2019-04-06T09:30:21.107Z,53.67
2019-04-06T09:32:48.084Z,64.57
2019-04-06T09:35:15.300Z,68.53
2019-04-06T09:37:42.253Z,59.67
2019-04-06T09:40:08.866Z,66.83
2019-04-06T09:42:35.466Z,64.70
2019-04-06T09:45:24.998Z,64.40
2019-04-06T09:48:08.265Z,56.00
2019-04-06T09:50:53.744Z,58.87
2019-04-06T09:53:38.980Z,61.10
2019-04-06T09:56:17.163Z,65.53
2019-04-06T09:58:51.411Z,59.20
2019-04-06T10:01:41.187Z,64.63
2019-04-06T10:04:26.626Z,67.40
2019-04-06T10:07:11.185Z,63.63
2019-04-06T10:09:59.887Z,60.00
2019-04-06T10:12:42.139Z,61.23
2019-04-06T10:15:46.430Z,69.57
2019-04-06T10:18:34.865Z,63.43
2019-04-06T10:21:31.836Z,56.07
2019-04-06T10:24:05.395Z,66.93
2019-04-06T10:26:45.468Z,57.67
2019-04-06T10:29:32.961Z,62.30
2019-04-06T10:32:18.555Z,64.23
2019-04-06T10:35:03.759Z,62.60
2019-04-06T10:37:50.481Z,66.13
2019-04-06T10:40:39.487Z,66.83
2019-04-06T10:43:24.467Z,64.90
2019-04-06T10:46:02.407Z,62.07
2019-04-06T10:48:43.491Z,62.80
2019-04-06T10:51:31.492Z,52.07
2019-04-06T10:54:17.045Z,61.43
2019-04-06T10:57:04.655Z,53.33
2019-04-06T11:00:01.011Z,55.13
2019-04-06T11:02:39.124Z,55.70
2019-04-06T11:05:15.517Z,57.83
2019-04-06T11:07:53.080Z,57.70
2019-04-06T11:10:46.063Z,53.37
2019-04-06T11:13:31.223Z,65.57
2019-04-06T11:16:29.634Z,54.77
2019-04-06T11:19:07.993Z,59.37
2019-04-06T11:21:49.071Z,52.87
2019-04-06T11:24:45.059Z,59.30
2019-04-06T11:27:29.802Z,54.93
2019-04-06T11:30:22.461Z,58.43
2019-04-06T11:33:00.541Z,54.27
2019-04-06T11:35:49.807Z,57.70
2019-04-06T11:38:26.688Z,52.67
2019-04-06T11:41:14.417Z,57.27
2019-04-06T11:43:49.803Z,52.13
2019-04-06T11:46:46.797Z,61.63
2019-04-06T11:49:33.808Z,54.33
2019-04-06T11:52:24.043Z,52.10
2019-04-06T11:55:01.599Z,61.90
2019-04-06T11:57:44.583Z,49.60
2019-04-06T12:00:36.971Z,58.37
2019-04-06T12:03:21.424Z,49.57
2019-04-06T12:06:19.661Z,57.53
2019-04-06T12:08:53.919Z,60.83
2019-04-06T12:11:46.202Z,54.73
2019-04-06T12:14:27.448Z,53.77
2019-04-06T12:17:29.754Z,56.73
2019-04-06T12:20:16.020Z,53.10
2019-04-06T12:23:02.416Z,54.77
2019-04-06T12:25:39.816Z,54.53
2019-04-06T12:28:21.364Z,59.67
2019-04-06T12:31:19.435Z,59.73
2019-04-06T12:34:01.061Z,53.23
2019-04-06T12:36:47.351Z,65.10
2019-04-06T12:39:34.112Z,53.70
2019-04-06T12:42:20.861Z,63.40
2019-04-06T12:45:06.039Z,56.50
2019-04-06T12:47:50.040Z,59.30
2019-04-06T12:50:45.012Z,54.87
2019-04-06T12:53:31.759Z,55.10
2019-04-06T12:56:22.057Z,59.80
2019-04-06T12:59:09.887Z,57.80
2019-04-06T13:01:55.707Z,56.37
2019-04-06T13:04:40.713Z,55.27
2019-04-06T13:07:16.935Z,59.87
2019-04-06T13:10:07.410Z,56.70
2019-04-06T13:12:57.687Z,57.93
2019-04-06T13:15:36.756Z,53.67
2019-04-06T13:18:21.679Z,59.63
2019-04-06T13:21:18.021Z,62.83
2019-04-06T13:24:07.003Z,56.30
2019-04-06T13:26:51.898Z,53.93
2019-04-06T13:29:41.160Z,61.70
2019-04-06T13:32:33.307Z,58.83
2019-04-06T13:35:07.235Z,55.23
2019-04-06T13:37:56.460Z,56.50
2019-04-06T13:40:41.835Z,64.80
2019-04-06T13:43:35.296Z,52.43
2019-04-06T13:46:24.242Z,50.10
2019-04-06T13:49:04.431Z,52.70
2019-04-06T13:51:50.570Z,58.23
2019-04-06T13:54:35.455Z,50.57
2019-04-06T13:57:26.853Z,50.50
2019-04-06T14:00:11.412Z,52.90
2019-04-06T14:03:00.654Z,54.60
2019-04-06T14:05:47.153Z,55.03
2019-04-06T14:08:30.647Z,49.57
2019-04-06T14:11:16.776Z,51.57
2019-04-06T14:13:57.927Z,52.10
2019-04-06T14:16:47.703Z,60.30
2019-04-06T14:19:29.598Z,52.10
2019-04-06T14:22:18.870Z,52.63
2019-04-06T14:25:07.043Z,55.40
2019-04-06T14:27:44.919Z,57.23
2019-04-06T14:30:28.252Z,57.30
2019-04-06T14:33:20.970Z,59.17
2019-04-06T14:36:17.240Z,51.90
2019-04-06T14:39:06.421Z,53.70
2019-04-06T14:42:00.577Z,53.60
2019-04-06T14:44:34.338Z,50.57
2019-04-06T14:47:19.563Z,45.00
2019-04-06T14:49:59.001Z,52.13
2019-04-06T14:52:58.258Z,48.63
2019-04-06T14:56:03.574Z,41.47
2019-04-06T14:58:59.885Z,51.30
2019-04-06T15:01:45.381Z,48.90
2019-04-06T15:04:32.610Z,43.23
2019-04-06T15:07:23.592Z,43.52
2019-04-06T15:10:18.824Z,44.90
2019-04-06T15:13:07.990Z,44.37
2019-04-06T15:15:46.055Z,68.77
2019-04-06T15:18:19.746Z,41.33
2019-04-06T15:20:52.954Z,42.90
2019-04-06T15:23:39.359Z,40.63
2019-04-06T15:26:14.286Z,46.03
2019-04-06T15:29:04.172Z,40.70
2019-04-06T15:31:51.320Z,38.63
2019-04-06T15:34:35.335Z,40.20
2019-04-06T15:37:21.165Z,38.63
2019-04-06T15:40:10.495Z,39.73
2019-04-06T15:43:02.367Z,41.03
2019-04-06T15:45:48.520Z,41.20
2019-04-06T15:48:37.484Z,42.27
2019-04-06T15:51:15.215Z,42.73
2019-04-06T15:54:07.771Z,43.80
2019-04-06T15:56:55.447Z,41.80
2019-04-06T15:59:51.131Z,46.73
2019-04-06T16:02:37.220Z,42.97
2019-04-06T16:05:27.895Z,40.33
2019-04-06T16:08:19.898Z,41.50
2019-04-06T16:11:08.911Z,39.97
2019-04-06T16:14:01.602Z,41.40
2019-04-06T16:16:38.959Z,39.00
2019-04-06T16:19:14.385Z,42.13
2019-04-06T16:21:54.891Z,46.60
2019-04-06T16:24:44.224Z,40.80
2019-04-06T16:27:51.558Z,43.30
2019-04-06T16:30:35.146Z,41.63
2019-04-06T16:33:27.616Z,40.00
2019-04-06T16:36:20.157Z,42.33
2019-04-06T16:39:06.690Z,41.27
2019-04-06T16:41:41.159Z,42.53
2019-04-06T16:44:30.316Z,40.77
2019-04-06T16:47:22.551Z,43.90
2019-04-06T16:50:09.115Z,43.00
2019-04-06T16:52:56.676Z,50.20
2019-04-06T16:55:49.952Z,45.57
2019-04-06T16:58:49.092Z,65.43
2019-04-06T17:01:27.665Z,46.10
2019-04-06T17:04:03.838Z,53.90
2019-04-06T17:06:53.858Z,57.10
2019-04-06T17:09:45.803Z,52.33
2019-04-06T17:12:29.281Z,57.63
2019-04-06T17:15:34.388Z,59.40
2019-04-06T17:18:30.298Z,80.90
2019-04-06T17:21:20.698Z,63.83
2019-04-06T17:24:07.281Z,65.90
2019-04-06T17:27:00.326Z,50.97
2019-04-06T17:29:38.767Z,50.83
2019-04-06T17:32:09.767Z,50.37
2019-04-06T17:35:01.989Z,50.90
2019-04-06T17:37:34.609Z,49.20
2019-04-06T17:40:08.431Z,55.70
2019-04-06T17:42:54.399Z,58.10
2019-04-06T17:45:49.327Z,53.77
2019-04-06T17:48:35.455Z,53.37
2019-04-06T17:51:21.971Z,49.90
2019-04-06T17:53:58.110Z,54.53
2019-04-06T17:56:56.644Z,57.50
2019-04-06T17:59:51.693Z,59.00
2019-04-06T18:02:51.006Z,63.17
2019-04-06T18:05:36.107Z,47.63
2019-04-06T18:08:34.671Z,54.63
2019-04-06T18:11:39.087Z,53.30
2019-04-06T18:14:06.075Z,56.63
2019-04-06T18:16:34.726Z,56.57
2019-04-06T18:19:02.220Z,52.83
2019-04-06T18:21:30.109Z,62.47
2019-04-06T18:23:57.731Z,57.27
2019-04-06T18:26:24.551Z,58.17
2019-04-06T18:28:51.965Z,53.33
2019-04-06T18:31:42.219Z,58.67
2019-04-06T18:34:09.272Z,53.77
2019-04-06T18:36:55.615Z,61.90
2019-04-06T18:39:22.944Z,56.93
2019-04-06T18:41:50.332Z,67.60
2019-04-06T18:44:17.579Z,52.33
2019-04-06T18:46:44.331Z,61.03
2019-04-06T18:49:13.307Z,53.70
2019-04-06T18:51:40.163Z,57.90
2019-04-06T18:54:12.515Z,57.27
2019-04-06T18:56:39.495Z,66.17
2019-04-06T18:59:06.511Z,56.40
2019-04-06T19:01:33.646Z,56.90
2019-04-06T19:04:00.327Z,50.50
2019-04-06T19:06:27.349Z,57.63
2019-04-06T19:08:54.099Z,64.47
2019-04-06T19:11:20.857Z,54.23
2019-04-06T19:13:47.819Z,60.07
2019-04-06T19:16:17.051Z,58.53
2019-04-06T19:18:43.112Z,64.53
2019-04-06T19:21:09.809Z,66.43
2019-04-06T19:23:36.480Z,61.27
2019-04-06T19:26:04.960Z,68.80
2019-04-06T19:28:32.289Z,60.00
2019-04-06T19:31:00.205Z,64.07
2019-04-06T19:33:27.293Z,51.53
2019-04-06T19:35:57.491Z,62.47
2019-04-06T19:38:24.786Z,60.90
2019-04-06T19:40:51.855Z,54.53
2019-04-06T19:43:18.650Z,62.63
2019-04-06T19:45:46.210Z,59.33
2019-04-06T19:48:13.203Z,58.03
2019-04-06T19:50:40.789Z,60.60
2019-04-06T19:53:07.886Z,59.00
2019-04-06T19:55:35.036Z,64.97
2019-04-06T19:58:02.461Z,61.57
2019-04-06T20:00:30.142Z,69.73
2019-04-06T20:02:57.832Z,72.50
2019-04-06T20:05:25.643Z,59.97
2019-04-06T20:07:52.415Z,63.70
2019-04-06T20:10:19.443Z,62.57
2019-04-06T20:12:46.308Z,59.77
2019-04-06T20:15:15.433Z,69.80
2019-04-06T20:17:43.435Z,52.07
2019-04-06T20:20:10.321Z,62.23
2019-04-06T20:22:38.150Z,77.93
2019-04-06T20:25:05.654Z,67.20
2019-04-06T20:27:32.280Z,72.83
2019-04-06T20:29:59.259Z,63.83
2019-04-06T20:32:25.897Z,64.40
2019-04-06T20:34:52.624Z,61.40
2019-04-06T20:37:21.615Z,66.40
2019-04-06T20:39:49.121Z,60.70
2019-04-06T20:42:16.658Z,63.40
2019-04-06T20:44:43.627Z,62.90
2019-04-06T20:47:11.374Z,67.50
2019-04-06T20:49:39.683Z,60.40
2019-04-06T20:52:07.150Z,67.67
2019-04-06T20:54:33.998Z,69.93
2019-04-06T20:57:00.731Z,67.43
2019-04-06T20:59:27.421Z,58.90
2019-04-06T21:01:54.324Z,74.53
2019-04-06T21:04:21.596Z,61.53
2019-04-06T21:06:49.267Z,64.77
2019-04-06T21:09:16.494Z,74.50
2019-04-06T21:11:43.743Z,65.70
2019-04-06T21:14:10.432Z,78.77
2019-04-06T21:16:37.944Z,69.20
2019-04-06T21:19:07.239Z,67.23
2019-04-06T21:21:34.696Z,72.97
2019-04-06T21:24:02.379Z,76.90
2019-04-06T21:26:29.039Z,71.30
2019-04-06T21:28:56.633Z,74.23
2019-04-06T21:31:23.416Z,79.87
2019-04-06T21:33:52.498Z,69.70
2019-04-06T21:36:19.312Z,74.37
2019-04-06T21:38:46.083Z,66.93
2019-04-06T21:41:12.745Z,68.07
2019-04-06T21:43:39.379Z,79.63
2019-04-06T21:46:06.716Z,80.40
2019-04-06T21:48:35.119Z,70.43
2019-04-06T21:51:02.925Z,65.80
2019-04-06T21:53:29.747Z,78.30
2019-04-06T21:56:03.426Z,77.50
2019-04-06T21:58:27.049Z,79.80
2019-04-06T22:00:56.651Z,79.93
2019-04-06T22:03:23.851Z,69.20
2019-04-06T22:05:50.967Z,72.27
2019-04-06T22:08:18.747Z,70.37
2019-04-06T22:10:45.923Z,75.93
2019-04-06T22:13:13.195Z,76.23
2019-04-06T22:15:40.396Z,85.73
2019-04-06T22:18:07.810Z,78.60
2019-04-06T22:20:35.541Z,87.03
2019-04-06T22:23:02.848Z,74.17
2019-04-06T22:25:30.004Z,76.70
2019-04-06T22:27:57.072Z,72.93
2019-04-06T22:30:23.724Z,72.50
2019-04-06T22:32:50.381Z,78.20
2019-04-06T22:35:18.319Z,71.33
2019-04-06T22:37:45.083Z,87.17
2019-04-06T22:40:13.058Z,74.27
2019-04-06T22:42:39.872Z,75.93
2019-04-06T22:45:09.230Z,84.13
2019-04-06T22:47:36.295Z,70.90
2019-04-06T22:50:04.435Z,74.47
2019-04-06T22:52:31.651Z,71.60
2019-04-06T22:54:58.384Z,79.10
2019-04-06T22:57:25.091Z,74.70
2019-04-06T22:59:51.787Z,82.03
2019-04-06T23:02:18.396Z,75.60
2019-04-06T23:05:05.339Z,71.83
2019-04-06T23:07:33.639Z,78.13
2019-04-06T23:10:02.862Z,72.80
2019-04-06T23:12:30.481Z,85.03
2019-04-06T23:14:57.412Z,72.53
2019-04-06T23:17:24.060Z,83.63
2019-04-06T23:19:52.538Z,79.20
2019-04-06T23:22:19.560Z,71.90
2019-04-06T23:24:46.837Z,78.83
2019-04-06T23:27:13.735Z,73.40
2019-04-06T23:29:40.427Z,80.07
2019-04-06T23:32:08.868Z,84.33
2019-04-06T23:34:37.953Z,79.20
2019-04-06T23:37:04.767Z,86.97
2019-04-06T23:39:32.095Z,80.57
2019-04-06T23:41:58.962Z,92.83
2019-04-06T23:44:26.878Z,79.70
2019-04-06T23:46:55.362Z,94.77
2019-04-06T23:49:22.420Z,86.20
2019-04-06T23:51:49.288Z,89.70
2019-04-06T23:54:16.443Z,83.87
2019-04-06T23:56:43.730Z,91.57
2019-04-06T23:59:12.081Z,93.57
